Valle Altamira, Puerto Rico
Current Conditions -  °F | °C
As of 4:56 PM on Friday 19 Dec 2014 (Local Time) from TJSJ Reporting Station
Scattered Clouds Scattered Clouds  
Wind Chill: 27°   Ceiling: Unl
Heat Index: 29°   Visibility: 10mi
Dew Point: 21°   Wind: 10mph
Humidity: 69%   Direction: 70°ENE
Pressure: 29.96"   Gusts: NA
Location:  18.0073°N, 66.5912°W
Report Text: TJSJ 192056Z 07009KT 10SM FEW033 SCT075 27/21 A2996 RMK AO2 SLP143 T02720211 55002
Loading
Personal Weather Stations






























Interactive Weather Map New forecast layout! Learn more

10-Day Weather Forecast

Advertisements
Track Severe Weather on mobile